Time;durP1;ratioP1;P1;durP2;ratioP2;P2;SDS_P1;SDS_P2;PMS_P1;PMS_P2;Temp;Humidity;BMP_temperature;BMP_pressure;BME280_temperature;BME280_humidity;BME280_pressure;Samples;Min_cycle;Max_cycle;Signal;HPM_P1;HPM_P2
2022/12/16 00:02:05;;;;;;;76.80;31.23;;;;;;;-0.37;54.95;100810.78;4967575;28;96831;-64
2022/12/16 00:04:31;;;;;;;76.65;32.65;;;;;;;-0.25;55.02;100808.28;4968930;28;96952;-63
2022/12/16 00:06:59;;;;;;;77.07;29.73;;;;;;;-0.39;54.60;100809.91;4971978;28;99414;-64
2022/12/16 00:09:25;;;;;;;74.20;30.73;;;;;;;-0.38;54.72;100814.22;4969223;28;98771;-64
2022/12/16 00:11:52;;;;;;;71.75;30.25;;;;;;;-0.34;54.82;100816.00;4963782;28;96695;-65
2022/12/16 00:14:18;;;;;;;75.50;30.70;;;;;;;-0.44;54.55;100818.50;4966996;28;99566;-65
2022/12/16 00:16:45;;;;;;;64.22;28.50;;;;;;;-0.58;55.07;100814.00;4968659;28;99052;-65
2022/12/16 00:19:12;;;;;;;59.90;27.13;;;;;;;-0.48;54.95;100814.16;4971093;28;99729;-65
2022/12/16 00:21:38;;;;;;;66.68;29.98;;;;;;;-0.49;54.36;100821.91;4965514;28;97158;-64
2022/12/16 00:24:06;;;;;;;67.85;29.60;;;;;;;-0.30;54.17;100820.38;4968684;28;96899;-63
2022/12/16 00:26:33;;;;;;;75.10;31.77;;;;;;;-0.49;54.46;100825.38;4966204;28;99315;-65
2022/12/16 00:28:59;;;;;;;68.32;28.30;;;;;;;-0.50;55.52;100818.44;4968264;28;99286;-65
2022/12/16 00:31:27;;;;;;;64.75;28.05;;;;;;;-0.44;54.92;100823.69;4967671;28;96967;-65
2022/12/16 00:33:56;;;;;;;62.88;27.90;;;;;;;-0.51;55.22;100824.47;4970201;28;97114;-64
2022/12/16 00:36:22;;;;;;;63.45;28.60;;;;;;;-0.74;55.77;100833.75;4966365;28;99000;-65
2022/12/16 00:38:50;;;;;;;61.70;28.33;;;;;;;-0.63;55.56;100837.34;4966958;28;99000;-65
2022/12/16 00:41:18;;;;;;;70.25;30.77;;;;;;;-0.26;54.21;100832.53;4964094;28;98865;-65
2022/12/16 00:43:44;;;;;;;67.78;29.67;;;;;;;-0.34;54.72;100831.59;4968751;28;97401;-64
2022/12/16 00:46:11;;;;;;;59.75;29.15;;;;;;;-0.28;54.39;100837.72;4966411;28;98945;-64
2022/12/16 00:48:37;;;;;;;61.50;26.45;;;;;;;-0.30;53.88;100844.59;4967467;28;98928;-65
2022/12/16 00:51:04;;;;;;;69.68;30.00;;;;;;;-0.29;53.38;100851.56;4964324;28;97762;-64
2022/12/16 00:53:30;;;;;;;64.13;29.70;;;;;;;-0.27;53.83;100851.56;4967594;28;97770;-64
2022/12/16 00:56:04;;;;;;;72.13;31.33;;;;;;;-0.18;54.66;100852.50;4964483;28;99043;-64
2022/12/16 00:58:32;;;;;;;66.63;30.75;;;;;;;-0.11;54.18;100854.31;4969701;28;97636;-65
2022/12/16 01:00:59;;;;;;;76.60;31.92;;;;;;;0.01;53.77;100845.75;4965591;28;96889;-67
2022/12/16 01:03:25;;;;;;;74.25;32.50;;;;;;;-0.18;54.28;100843.84;4972036;28;97026;-65
2022/12/16 01:05:51;;;;;;;73.43;33.13;;;;;;;-0.18;54.39;100842.13;4966900;28;98190;-64
2022/12/16 01:08:18;;;;;;;71.90;32.38;;;;;;;0.04;53.95;100838.00;4971092;28;98835;-65
2022/12/16 01:10:50;;;;;;;71.97;31.80;;;;;;;-0.06;53.34;100849.16;4966091;28;97690;-64
2022/12/16 01:13:16;;;;;;;73.32;30.95;;;;;;;0.16;53.68;100843.28;4971449;28;96930;-72
2022/12/16 01:15:44;;;;;;;78.50;32.00;;;;;;;0.04;53.01;100839.72;4969109;28;99039;-73
2022/12/16 01:18:10;;;;;;;71.82;31.35;;;;;;;0.09;52.96;100845.81;4971440;28;99003;-73
2022/12/16 01:20:37;;;;;;;77.20;32.17;;;;;;;-0.02;53.21;100843.16;4967650;28;97084;-72
2022/12/16 01:23:04;;;;;;;77.25;30.92;;;;;;;-0.13;53.30;100848.22;4968392;28;96748;-73
2022/12/16 01:25:30;;;;;;;68.25;30.25;;;;;;;-0.34;53.52;100844.56;4960809;28;99156;-72
2022/12/16 01:27:58;;;;;;;70.93;31.00;;;;;;;-0.36;53.96;100848.88;4964899;28;97664;-73
2022/12/16 01:30:24;;;;;;;78.72;32.80;;;;;;;-0.53;54.43;100857.38;4961753;28;96728;-72
2022/12/16 01:32:52;;;;;;;69.97;30.30;;;;;;;-0.61;55.25;100856.41;4963611;28;96891;-73
2022/12/16 01:35:18;;;;;;;65.43;29.67;;;;;;;-0.30;54.01;100851.53;4971398;28;99323;-72
2022/12/16 01:37:45;;;;;;;76.90;31.33;;;;;;;-0.65;54.93;100858.91;4969044;28;97745;-72
2022/12/16 01:40:17;;;;;;;64.47;30.33;;;;;;;-0.60;54.66;100847.75;4965217;28;97526;-73
2022/12/16 01:42:44;;;;;;;70.78;31.20;;;;;;;-0.78;55.11;100849.25;4963281;28;96925;-73
2022/12/16 01:45:31;;;;;;;63.03;29.00;;;;;;;-0.71;54.95;100851.06;4968534;28;99038;-73
2022/12/16 01:48:03;;;;;;;75.93;31.48;;;;;;;-0.79;55.40;100844.94;4960562;28;98755;-73
2022/12/16 01:50:31;;;;;;;75.40;30.92;;;;;;;-0.82;54.91;100840.56;4963625;28;96989;-72
2022/12/16 01:53:01;;;;;;;62.25;27.95;;;;;;;-0.76;55.10;100847.56;4975767;28;97327;-71
2022/12/16 01:55:31;;;;;;;65.15;28.58;;;;;;;-0.86;55.00;100844.00;4965815;28;98891;-72
2022/12/16 01:58:02;;;;;;;68.45;28.75;;;;;;;-0.72;54.42;100852.78;4968371;28;99684;-72
2022/12/16 02:00:28;;;;;;;65.90;29.58;;;;;;;-0.79;54.24;100851.00;4967883;28;96860;-72
2022/12/16 02:02:57;;;;;;;62.03;27.42;;;;;;;-0.70;54.14;100851.09;4963534;28;96968;-72
2022/12/16 02:05:25;;;;;;;67.45;29.55;;;;;;;-0.82;54.63;100848.34;4966969;28;99375;-73
2022/12/16 02:07:58;;;;;;;71.28;31.00;;;;;;;-0.68;54.62;100851.13;4960154;28;98747;-72
2022/12/16 02:10:32;;;;;;;68.35;29.23;;;;;;;-0.74;54.97;100851.91;4965932;28;96761;-72
2022/12/16 02:13:06;;;;;;;71.63;30.73;;;;;;;-0.63;54.34;100849.44;4960446;28;96804;-73
2022/12/16 02:15:42;;;;;;;74.47;30.20;;;;;;;-0.74;54.48;100851.03;4969087;28;97898;-74
2022/12/16 02:18:17;;;;;;;67.47;29.83;;;;;;;-1.06;55.31;100845.47;4967989;28;99136;-71
2022/12/16 02:21:14;;;;;;;69.40;28.25;;;;;;;-0.56;54.28;100848.66;4965957;28;96911;-72
2022/12/16 02:24:09;;;;;;;61.87;27.93;;;;;;;-0.58;54.15;100835.66;4962551;28;97298;-73
2022/12/16 02:26:55;;;;;;;57.20;26.45;;;;;;;-0.71;53.57;100835.50;4960652;28;99266;-73
2022/12/16 02:29:37;;;;;;;65.68;28.70;;;;;;;-0.82;53.75;100840.56;4973025;28;99085;-72
2022/12/16 02:32:14;;;;;;;70.03;27.83;;;;;;;-0.95;54.00;100841.28;4960801;28;97212;-71
2022/12/16 02:34:49;;;;;;;73.32;29.23;;;;;;;-0.98;54.68;100839.50;4966275;28;97072;-73
2022/12/16 02:37:24;;;;;;;63.73;27.87;;;;;;;-1.07;54.68;100842.00;4966374;28;98986;-73
2022/12/16 02:39:55;;;;;;;66.63;27.33;;;;;;;-1.06;54.65;100841.16;4971291;28;99062;-72
2022/12/16 02:42:29;;;;;;;64.13;27.95;;;;;;;-1.09;54.72;100840.22;4970722;28;96753;-73
2022/12/16 02:45:01;;;;;;;64.35;27.20;;;;;;;-1.11;55.13;100836.72;4961484;28;96910;-72
2022/12/16 02:47:30;;;;;;;63.67;26.63;;;;;;;-1.06;55.06;100841.16;4965884;28;99565;-73
2022/12/16 02:49:57;;;;;;;66.78;28.08;;;;;;;-1.22;55.56;100836.59;4971426;28;98611;-71
2022/12/16 02:52:26;;;;;;;63.22;28.42;;;;;;;-1.05;54.80;100829.91;4970793;28;96897;-70
2022/12/16 02:54:56;;;;;;;59.83;27.10;;;;;;;-0.93;55.17;100832.66;4965346;28;96735;-71
2022/12/16 02:57:55;;;;;;;61.75;27.40;;;;;;;-1.01;54.66;100834.28;4966884;28;98952;-71
2022/12/16 03:00:23;;;;;;;62.38;26.38;;;;;;;-1.09;54.72;100830.72;4945497;28;98957;-71
2022/12/16 03:02:57;;;;;;;63.60;27.23;;;;;;;-1.06;54.62;100829.91;4967051;28;98394;-72
2022/12/16 03:05:27;;;;;;;65.72;28.15;;;;;;;-0.97;54.32;100830.00;4965436;28;97179;-72
2022/12/16 03:07:58;;;;;;;68.38;26.83;;;;;;;-1.12;54.73;100824.63;4966666;28;101171;-72
2022/12/16 03:10:28;;;;;;;66.25;27.08;;;;;;;-1.03;55.04;100830.81;4968689;28;99537;-73
2022/12/16 03:12:56;;;;;;;63.67;27.23;;;;;;;-1.05;55.01;100826.47;4966733;28;97236;-73
2022/12/16 03:15:26;;;;;;;59.95;26.33;;;;;;;-1.08;54.54;100829.88;4965812;28;97098;-72
2022/12/16 03:17:55;;;;;;;65.72;27.90;;;;;;;-1.00;54.80;100833.44;4968038;28;98636;-73
2022/12/16 03:20:26;;;;;;;72.15;28.38;;;;;;;-0.96;54.49;100831.75;4965927;28;98853;-72
2022/12/16 03:22:56;;;;;;;65.50;26.63;;;;;;;-0.82;53.71;100832.78;4973226;28;96995;-72
2022/12/16 03:25:23;;;;;;;60.80;27.60;;;;;;;-0.75;53.87;100825.94;4966302;28;96855;-72
2022/12/16 03:27:56;;;;;;;62.53;27.05;;;;;;;-0.78;53.96;100829.38;4972713;28;99305;-72
2022/12/16 03:30:29;;;;;;;58.92;25.70;;;;;;;-1.02;54.24;100832.53;4966522;28;99498;-72
2022/12/16 03:33:02;;;;;;;54.60;25.75;;;;;;;-0.84;53.65;100824.09;4971323;28;96925;-72
2022/12/16 03:35:34;;;;;;;58.40;25.75;;;;;;;-0.93;53.44;100819.69;4965976;28;96778;-74
2022/12/16 03:38:03;;;;;;;62.38;25.38;;;;;;;-1.01;54.09;100823.91;4967683;28;98906;-72
2022/12/16 03:40:32;;;;;;;55.78;26.33;;;;;;;-1.19;54.07;100826.28;4972500;28;99209;-73
2022/12/16 03:43:01;;;;;;;64.35;26.17;;;;;;;-1.03;54.32;100822.16;4964946;28;97342;-73
2022/12/16 03:45:32;;;;;;;63.30;26.65;;;;;;;-1.03;54.09;100810.03;4965544;28;97191;-73
2022/12/16 03:48:00;;;;;;;60.08;26.50;;;;;;;-1.15;54.12;100809.91;4962485;28;99173;-71
2022/12/16 03:50:31;;;;;;;64.45;25.95;;;;;;;-1.03;53.95;100810.03;4971742;28;98952;-74
2022/12/16 03:52:58;;;;;;;63.22;27.38;;;;;;;-0.79;53.42;100812.09;4960570;28;97201;-73
2022/12/16 03:55:24;;;;;;;60.28;26.35;;;;;;;-0.86;53.52;100812.88;4967967;28;96912;-73
2022/12/16 03:57:51;;;;;;;61.78;26.63;;;;;;;-0.80;53.58;100818.13;4960210;28;99436;-73
2022/12/16 04:00:18;;;;;;;59.35;25.95;;;;;;;-0.77;53.75;100818.13;4968708;28;98788;-72
2022/12/16 04:02:44;;;;;;;57.53;26.42;;;;;;;-0.85;53.65;100811.97;4965457;28;99955;-72
2022/12/16 04:05:13;;;;;;;60.42;25.92;;;;;;;-0.85;53.83;100812.84;4968806;28;96830;-73
2022/12/16 04:07:39;;;;;;;58.25;24.75;;;;;;;-0.89;54.29;100818.88;4960452;28;98850;-71
2022/12/16 04:10:07;;;;;;;56.28;25.17;;;;;;;-0.98;54.50;100823.06;4963199;28;98904;-72
2022/12/16 04:26:30;;;;;;;59.72;24.98;;;;;;;-1.08;54.32;100836.78;4960774;28;96783;-72
2022/12/16 04:28:56;;;;;;;67.38;27.90;;;;;;;-1.18;54.58;100837.53;4964163;28;99545;-71
2022/12/16 04:31:23;;;;;;;58.80;26.10;;;;;;;-1.14;54.89;100836.72;4964048;28;99216;-72
